Terminal Aerodrome Forecast
Issued by NWS Wakefield, VA

Home | Current Version | Previous Version | Text Only | Print | Product List | Glossary On
Versions: 1 2 3 4 5 6 7 8 9 10 11 12 13 14 15 16 17
000
FTUS41 KAKQ 031742
TAFRIC
TAF
KRIC 031742Z 0318/0418 11005KT P6SM BKN040 BKN080
     FM032000 14007KT 5SM -SHRA BKN025
     FM040400 10005KT 4SM -RA BKN009
     FM041400 29010KT P6SM BKN020=

USA.gov is the U.S. government's official web portal to all federal, state and local government web resources and services.